Bowling Green, Illinois
Current Conditions -  °F | °C
As of 9:55 AM on Thursday 30 Oct 2014 (Local Time) from K1H2 Reporting Station
Clear Clear  
Wind Chill: 44°   Ceiling: Unl
Heat Index: 46°   Visibility: NA
Dew Point: 34°   Wind: 6mph
Humidity: 62%   Direction: 150°SSE
Pressure: 30.17"   Gusts: NA
Location:  39.2184°N, 88.9038°W
Report Text: K1H2 301455Z AUTO 15005KT CLR 08/01 A3017 RMK AO2 T00800012 PWINO
Loading
Personal Weather Stations






























Interactive Weather Map
Tropical Storm Tracking
New forecast layout! Learn more

10-Day Weather Forecast

Advertisements
Track Severe Weather on mobile